sensor_id;sensor_type;location;lat;lon;timestamp;temperature;humidity
70456;DHT22;57916;51.996;5.180;2024-01-27T00:00:20;8.10;71.70
70456;DHT22;57916;51.996;5.180;2024-01-27T00:02:47;8.00;71.60
70456;DHT22;57916;51.996;5.180;2024-01-27T00:05:15;7.90;71.50
70456;DHT22;57916;51.996;5.180;2024-01-27T00:07:42;7.90;71.60
70456;DHT22;57916;51.996;5.180;2024-01-27T00:10:09;7.90;71.90
70456;DHT22;57916;51.996;5.180;2024-01-27T00:12:36;7.80;71.90
70456;DHT22;57916;51.996;5.180;2024-01-27T00:15:06;7.80;72.20
70456;DHT22;57916;51.996;5.180;2024-01-27T00:17:33;7.80;72.70
70456;DHT22;57916;51.996;5.180;2024-01-27T00:20:02;7.80;73.00
70456;DHT22;57916;51.996;5.180;2024-01-27T00:22:30;7.80;73.30
70456;DHT22;57916;51.996;5.180;2024-01-27T00:24:57;7.80;73.30
70456;DHT22;57916;51.996;5.180;2024-01-27T00:27:24;7.80;73.20
70456;DHT22;57916;51.996;5.180;2024-01-27T00:29:51;7.80;72.80
70456;DHT22;57916;51.996;5.180;2024-01-27T00:32:18;7.80;72.80
70456;DHT22;57916;51.996;5.180;2024-01-27T00:34:45;7.80;72.70
70456;DHT22;57916;51.996;5.180;2024-01-27T00:37:12;7.80;72.60
70456;DHT22;57916;51.996;5.180;2024-01-27T00:39:39;7.70;72.80
70456;DHT22;57916;51.996;5.180;2024-01-27T00:42:07;7.70;73.00
70456;DHT22;57916;51.996;5.180;2024-01-27T00:44:34;7.70;73.00
70456;DHT22;57916;51.996;5.180;2024-01-27T00:47:01;7.70;73.00
70456;DHT22;57916;51.996;5.180;2024-01-27T00:49:28;7.70;73.10
70456;DHT22;57916;51.996;5.180;2024-01-27T00:51:55;7.70;73.20
70456;DHT22;57916;51.996;5.180;2024-01-27T00:54:22;7.70;73.30
70456;DHT22;57916;51.996;5.180;2024-01-27T00:56:49;7.70;73.20
70456;DHT22;57916;51.996;5.180;2024-01-27T00:59:16;7.70;73.10
70456;DHT22;57916;51.996;5.180;2024-01-27T01:01:43;7.70;73.10
70456;DHT22;57916;51.996;5.180;2024-01-27T01:04:10;7.60;73.20
70456;DHT22;57916;51.996;5.180;2024-01-27T01:06:39;7.60;73.20
70456;DHT22;57916;51.996;5.180;2024-01-27T01:09:07;7.60;73.20
70456;DHT22;57916;51.996;5.180;2024-01-27T01:11:34;7.60;73.10
70456;DHT22;57916;51.996;5.180;2024-01-27T01:14:05;7.60;72.90
70456;DHT22;57916;51.996;5.180;2024-01-27T01:16:32;7.60;72.90
70456;DHT22;57916;51.996;5.180;2024-01-27T01:18:59;7.60;72.90
70456;DHT22;57916;51.996;5.180;2024-01-27T01:21:26;7.60;73.00
70456;DHT22;57916;51.996;5.180;2024-01-27T01:23:55;7.50;73.00
70456;DHT22;57916;51.996;5.180;2024-01-27T01:26:22;7.50;73.40
70456;DHT22;57916;51.996;5.180;2024-01-27T01:28:49;7.50;73.40
70456;DHT22;57916;51.996;5.180;2024-01-27T01:31:16;7.50;73.40
70456;DHT22;57916;51.996;5.180;2024-01-27T01:33:44;7.50;73.50
70456;DHT22;57916;51.996;5.180;2024-01-27T01:36:11;7.60;73.50
70456;DHT22;57916;51.996;5.180;2024-01-27T01:38:38;7.60;73.50
70456;DHT22;57916;51.996;5.180;2024-01-27T01:41:05;7.50;73.40
70456;DHT22;57916;51.996;5.180;2024-01-27T01:43:32;7.50;73.30
70456;DHT22;57916;51.996;5.180;2024-01-27T01:45:59;7.50;73.20
70456;DHT22;57916;51.996;5.180;2024-01-27T01:48:26;7.50;73.00
70456;DHT22;57916;51.996;5.180;2024-01-27T01:50:54;7.50;72.80
70456;DHT22;57916;51.996;5.180;2024-01-27T01:53:22;7.50;72.90
70456;DHT22;57916;51.996;5.180;2024-01-27T01:55:50;7.50;72.90
70456;DHT22;57916;51.996;5.180;2024-01-27T01:58:17;7.50;72.70
70456;DHT22;57916;51.996;5.180;2024-01-27T02:00:44;7.40;72.70
70456;DHT22;57916;51.996;5.180;2024-01-27T02:03:12;7.40;72.90
70456;DHT22;57916;51.996;5.180;2024-01-27T02:05:40;7.50;73.20
70456;DHT22;57916;51.996;5.180;2024-01-27T02:08:07;7.50;73.40
70456;DHT22;57916;51.996;5.180;2024-01-27T02:10:35;7.50;73.40
70456;DHT22;57916;51.996;5.180;2024-01-27T02:13:18;7.50;73.40
70456;DHT22;57916;51.996;5.180;2024-01-27T02:15:47;7.50;73.40
70456;DHT22;57916;51.996;5.180;2024-01-27T02:18:15;7.50;73.30
70456;DHT22;57916;51.996;5.180;2024-01-27T02:20:42;7.40;73.00
70456;DHT22;57916;51.996;5.180;2024-01-27T02:23:09;7.40;72.90
70456;DHT22;57916;51.996;5.180;2024-01-27T02:25:36;7.40;72.70
70456;DHT22;57916;51.996;5.180;2024-01-27T02:28:04;7.40;72.60
70456;DHT22;57916;51.996;5.180;2024-01-27T02:30:31;7.40;72.50
70456;DHT22;57916;51.996;5.180;2024-01-27T02:32:58;7.40;72.30
70456;DHT22;57916;51.996;5.180;2024-01-27T02:35:25;7.40;72.20
70456;DHT22;57916;51.996;5.180;2024-01-27T02:37:52;7.50;72.20
70456;DHT22;57916;51.996;5.180;2024-01-27T02:40:19;7.40;72.10
70456;DHT22;57916;51.996;5.180;2024-01-27T02:42:46;7.40;72.20
70456;DHT22;57916;51.996;5.180;2024-01-27T02:45:13;7.30;72.30
70456;DHT22;57916;51.996;5.180;2024-01-27T02:47:40;7.20;72.50
70456;DHT22;57916;51.996;5.180;2024-01-27T02:50:08;7.20;72.80
70456;DHT22;57916;51.996;5.180;2024-01-27T02:52:35;7.20;73.30
70456;DHT22;57916;51.996;5.180;2024-01-27T02:55:02;7.20;73.50
70456;DHT22;57916;51.996;5.180;2024-01-27T02:57:29;7.20;73.70
70456;DHT22;57916;51.996;5.180;2024-01-27T02:59:56;7.20;73.60
70456;DHT22;57916;51.996;5.180;2024-01-27T03:02:24;7.10;73.20
70456;DHT22;57916;51.996;5.180;2024-01-27T03:04:50;7.20;73.00
70456;DHT22;57916;51.996;5.180;2024-01-27T03:07:17;7.20;72.70
70456;DHT22;57916;51.996;5.180;2024-01-27T03:09:44;7.20;72.40
70456;DHT22;57916;51.996;5.180;2024-01-27T03:12:11;7.20;72.20
70456;DHT22;57916;51.996;5.180;2024-01-27T03:14:39;7.20;72.00
70456;DHT22;57916;51.996;5.180;2024-01-27T03:17:06;7.30;71.90
70456;DHT22;57916;51.996;5.180;2024-01-27T03:19:33;7.20;71.80
70456;DHT22;57916;51.996;5.180;2024-01-27T03:22:01;7.20;71.80
70456;DHT22;57916;51.996;5.180;2024-01-27T03:24:28;7.10;71.70
70456;DHT22;57916;51.996;5.180;2024-01-27T03:26:55;7.10;72.00
70456;DHT22;57916;51.996;5.180;2024-01-27T03:29:22;7.10;72.00
70456;DHT22;57916;51.996;5.180;2024-01-27T03:31:49;7.10;71.90
70456;DHT22;57916;51.996;5.180;2024-01-27T03:34:16;7.00;71.90
70456;DHT22;57916;51.996;5.180;2024-01-27T03:36:48;7.10;71.80
70456;DHT22;57916;51.996;5.180;2024-01-27T03:39:14;7.00;71.60
70456;DHT22;57916;51.996;5.180;2024-01-27T03:41:42;7.00;71.70
70456;DHT22;57916;51.996;5.180;2024-01-27T03:44:09;6.90;71.90
70456;DHT22;57916;51.996;5.180;2024-01-27T03:46:36;6.90;72.20
70456;DHT22;57916;51.996;5.180;2024-01-27T03:49:05;6.80;72.40
70456;DHT22;57916;51.996;5.180;2024-01-27T03:51:33;6.70;72.60
70456;DHT22;57916;51.996;5.180;2024-01-27T03:54:00;6.70;73.00
70456;DHT22;57916;51.996;5.180;2024-01-27T03:56:27;6.70;73.40
70456;DHT22;57916;51.996;5.180;2024-01-27T03:58:54;6.70;73.90
70456;DHT22;57916;51.996;5.180;2024-01-27T04:01:21;6.70;74.10
70456;DHT22;57916;51.996;5.180;2024-01-27T04:03:49;6.70;74.30
70456;DHT22;57916;51.996;5.180;2024-01-27T04:06:16;6.70;74.20
70456;DHT22;57916;51.996;5.180;2024-01-27T04:08:43;6.70;74.20
70456;DHT22;57916;51.996;5.180;2024-01-27T04:11:22;6.60;74.40
70456;DHT22;57916;51.996;5.180;2024-01-27T04:13:49;6.60;74.60
70456;DHT22;57916;51.996;5.180;2024-01-27T04:16:19;6.60;74.90
70456;DHT22;57916;51.996;5.180;2024-01-27T04:18:46;6.60;75.20
70456;DHT22;57916;51.996;5.180;2024-01-27T04:21:14;6.60;75.20
70456;DHT22;57916;51.996;5.180;2024-01-27T04:23:41;6.70;75.40
70456;DHT22;57916;51.996;5.180;2024-01-27T04:26:08;6.70;75.20
70456;DHT22;57916;51.996;5.180;2024-01-27T04:28:36;6.70;75.00
70456;DHT22;57916;51.996;5.180;2024-01-27T04:31:03;6.70;74.60
70456;DHT22;57916;51.996;5.180;2024-01-27T04:33:31;6.70;74.40
70456;DHT22;57916;51.996;5.180;2024-01-27T04:35:58;6.70;74.00
70456;DHT22;57916;51.996;5.180;2024-01-27T04:38:26;6.70;73.80
70456;DHT22;57916;51.996;5.180;2024-01-27T04:40:52;6.80;73.80
70456;DHT22;57916;51.996;5.180;2024-01-27T04:43:19;6.80;74.10
70456;DHT22;57916;51.996;5.180;2024-01-27T04:45:49;6.70;74.30
70456;DHT22;57916;51.996;5.180;2024-01-27T04:48:16;6.70;74.20
70456;DHT22;57916;51.996;5.180;2024-01-27T04:50:44;6.70;74.10
70456;DHT22;57916;51.996;5.180;2024-01-27T04:53:11;6.70;74.10
70456;DHT22;57916;51.996;5.180;2024-01-27T04:55:38;6.60;74.00
70456;DHT22;57916;51.996;5.180;2024-01-27T04:58:07;6.60;74.00
70456;DHT22;57916;51.996;5.180;2024-01-27T05:00:34;6.60;73.90
70456;DHT22;57916;51.996;5.180;2024-01-27T05:03:01;6.60;73.80
70456;DHT22;57916;51.996;5.180;2024-01-27T05:05:31;6.60;73.60
70456;DHT22;57916;51.996;5.180;2024-01-27T05:08:03;6.70;73.30
70456;DHT22;57916;51.996;5.180;2024-01-27T05:10:30;6.70;73.30
70456;DHT22;57916;51.996;5.180;2024-01-27T05:12:57;6.70;73.20
70456;DHT22;57916;51.996;5.180;2024-01-27T05:15:23;6.70;73.30
70456;DHT22;57916;51.996;5.180;2024-01-27T05:17:51;6.60;73.50
70456;DHT22;57916;51.996;5.180;2024-01-27T05:20:18;6.60;73.70
70456;DHT22;57916;51.996;5.180;2024-01-27T05:22:46;6.60;73.80
70456;DHT22;57916;51.996;5.180;2024-01-27T05:25:13;6.60;73.50
70456;DHT22;57916;51.996;5.180;2024-01-27T05:27:40;6.60;73.50
70456;DHT22;57916;51.996;5.180;2024-01-27T05:30:08;6.60;73.30
70456;DHT22;57916;51.996;5.180;2024-01-27T05:32:35;6.60;73.30
70456;DHT22;57916;51.996;5.180;2024-01-27T05:35:02;6.60;73.20
70456;DHT22;57916;51.996;5.180;2024-01-27T05:37:32;6.60;73.10
70456;DHT22;57916;51.996;5.180;2024-01-27T05:39:59;6.60;73.10
70456;DHT22;57916;51.996;5.180;2024-01-27T05:42:26;6.60;72.90
70456;DHT22;57916;51.996;5.180;2024-01-27T05:44:53;6.60;72.80
70456;DHT22;57916;51.996;5.180;2024-01-27T05:47:20;6.60;72.70
70456;DHT22;57916;51.996;5.180;2024-01-27T05:49:47;6.60;72.80
70456;DHT22;57916;51.996;5.180;2024-01-27T05:52:14;6.60;72.70
70456;DHT22;57916;51.996;5.180;2024-01-27T05:54:52;6.60;72.60
70456;DHT22;57916;51.996;5.180;2024-01-27T05:57:19;6.60;72.60
70456;DHT22;57916;51.996;5.180;2024-01-27T05:59:46;6.60;72.80
70456;DHT22;57916;51.996;5.180;2024-01-27T06:02:13;6.50;72.90
70456;DHT22;57916;51.996;5.180;2024-01-27T06:04:40;6.50;72.90
70456;DHT22;57916;51.996;5.180;2024-01-27T06:07:07;6.50;72.90
70456;DHT22;57916;51.996;5.180;2024-01-27T06:09:37;6.40;73.10
70456;DHT22;57916;51.996;5.180;2024-01-27T06:12:05;6.40;73.60
70456;DHT22;57916;51.996;5.180;2024-01-27T06:14:32;6.40;73.90
70456;DHT22;57916;51.996;5.180;2024-01-27T06:17:00;6.30;74.10
70456;DHT22;57916;51.996;5.180;2024-01-27T06:19:27;6.30;74.20
70456;DHT22;57916;51.996;5.180;2024-01-27T06:21:54;6.30;74.20
70456;DHT22;57916;51.996;5.180;2024-01-27T06:24:21;6.20;74.10
70456;DHT22;57916;51.996;5.180;2024-01-27T06:26:48;6.20;74.20
70456;DHT22;57916;51.996;5.180;2024-01-27T06:29:16;6.20;74.40
70456;DHT22;57916;51.996;5.180;2024-01-27T06:31:45;6.20;74.60
70456;DHT22;57916;51.996;5.180;2024-01-27T06:34:12;6.30;74.70
70456;DHT22;57916;51.996;5.180;2024-01-27T06:36:39;6.30;74.70
70456;DHT22;57916;51.996;5.180;2024-01-27T06:39:06;6.30;74.90
70456;DHT22;57916;51.996;5.180;2024-01-27T06:41:34;6.20;74.90
70456;DHT22;57916;51.996;5.180;2024-01-27T06:44:01;6.30;74.90
70456;DHT22;57916;51.996;5.180;2024-01-27T06:46:29;6.20;74.60
70456;DHT22;57916;51.996;5.180;2024-01-27T06:48:56;6.30;74.60
70456;DHT22;57916;51.996;5.180;2024-01-27T06:51:24;6.30;74.40
70456;DHT22;57916;51.996;5.180;2024-01-27T06:53:51;6.30;74.40
70456;DHT22;57916;51.996;5.180;2024-01-27T06:56:18;6.30;74.30
70456;DHT22;57916;51.996;5.180;2024-01-27T06:58:45;6.30;74.30
70456;DHT22;57916;51.996;5.180;2024-01-27T07:01:12;6.30;74.40
70456;DHT22;57916;51.996;5.180;2024-01-27T07:03:39;6.30;74.50
70456;DHT22;57916;51.996;5.180;2024-01-27T07:06:07;6.20;74.60
70456;DHT22;57916;51.996;5.180;2024-01-27T07:08:34;6.20;74.60
70456;DHT22;57916;51.996;5.180;2024-01-27T07:11:04;6.20;74.50
70456;DHT22;57916;51.996;5.180;2024-01-27T07:13:32;6.20;74.20
70456;DHT22;57916;51.996;5.180;2024-01-27T07:15:59;6.20;74.30
70456;DHT22;57916;51.996;5.180;2024-01-27T07:18:26;6.10;74.40
70456;DHT22;57916;51.996;5.180;2024-01-27T07:20:53;6.10;74.50
70456;DHT22;57916;51.996;5.180;2024-01-27T07:23:21;6.10;74.50
70456;DHT22;57916;51.996;5.180;2024-01-27T07:25:48;6.10;74.50
70456;DHT22;57916;51.996;5.180;2024-01-27T07:28:15;6.20;74.40
70456;DHT22;57916;51.996;5.180;2024-01-27T07:30:45;6.20;74.20
70456;DHT22;57916;51.996;5.180;2024-01-27T07:33:13;6.20;74.20
70456;DHT22;57916;51.996;5.180;2024-01-27T07:35:40;6.20;74.10
70456;DHT22;57916;51.996;5.180;2024-01-27T07:38:07;6.20;74.10
70456;DHT22;57916;51.996;5.180;2024-01-27T07:40:35;6.20;74.20
70456;DHT22;57916;51.996;5.180;2024-01-27T07:43:02;6.20;74.40
70456;DHT22;57916;51.996;5.180;2024-01-27T07:45:30;6.20;74.70
70456;DHT22;57916;51.996;5.180;2024-01-27T07:47:57;6.20;74.90
70456;DHT22;57916;51.996;5.180;2024-01-27T07:50:27;6.20;75.00
70456;DHT22;57916;51.996;5.180;2024-01-27T07:52:54;6.20;75.30
70456;DHT22;57916;51.996;5.180;2024-01-27T07:55:21;6.20;75.50
70456;DHT22;57916;51.996;5.180;2024-01-27T07:57:48;6.30;75.60
70456;DHT22;57916;51.996;5.180;2024-01-27T08:00:16;6.20;75.70
70456;DHT22;57916;51.996;5.180;2024-01-27T08:02:43;6.20;75.80
70456;DHT22;57916;51.996;5.180;2024-01-27T08:05:10;6.20;75.80
70456;DHT22;57916;51.996;5.180;2024-01-27T08:07:37;6.20;76.00
70456;DHT22;57916;51.996;5.180;2024-01-27T08:10:05;6.30;76.10
70456;DHT22;57916;51.996;5.180;2024-01-27T08:12:32;6.30;76.20
70456;DHT22;57916;51.996;5.180;2024-01-27T08:14:59;6.30;76.30
70456;DHT22;57916;51.996;5.180;2024-01-27T08:17:26;6.30;76.30
70456;DHT22;57916;51.996;5.180;2024-01-27T08:19:53;6.40;76.40
70456;DHT22;57916;51.996;5.180;2024-01-27T08:22:20;6.40;76.50
70456;DHT22;57916;51.996;5.180;2024-01-27T08:24:48;6.50;76.60
70456;DHT22;57916;51.996;5.180;2024-01-27T08:27:14;6.50;76.60
70456;DHT22;57916;51.996;5.180;2024-01-27T08:29:42;6.50;76.50
70456;DHT22;57916;51.996;5.180;2024-01-27T08:32:09;6.60;76.40
70456;DHT22;57916;51.996;5.180;2024-01-27T08:34:36;6.60;76.30
70456;DHT22;57916;51.996;5.180;2024-01-27T08:37:19;6.70;76.50
70456;DHT22;57916;51.996;5.180;2024-01-27T08:39:47;6.70;76.50
70456;DHT22;57916;51.996;5.180;2024-01-27T08:42:13;6.70;76.50
70456;DHT22;57916;51.996;5.180;2024-01-27T08:44:41;6.80;76.30
70456;DHT22;57916;51.996;5.180;2024-01-27T08:47:08;6.80;76.30
70456;DHT22;57916;51.996;5.180;2024-01-27T08:49:35;6.80;76.30
70456;DHT22;57916;51.996;5.180;2024-01-27T08:52:02;6.90;76.30
70456;DHT22;57916;51.996;5.180;2024-01-27T08:54:29;6.90;76.20
70456;DHT22;57916;51.996;5.180;2024-01-27T08:56:56;7.00;76.10
70456;DHT22;57916;51.996;5.180;2024-01-27T08:59:23;7.10;76.00
70456;DHT22;57916;51.996;5.180;2024-01-27T09:01:50;7.20;76.80
70456;DHT22;57916;51.996;5.180;2024-01-27T09:04:18;7.20;76.00
70456;DHT22;57916;51.996;5.180;2024-01-27T09:06:45;7.30;76.30
70456;DHT22;57916;51.996;5.180;2024-01-27T09:09:12;7.30;76.90
70456;DHT22;57916;51.996;5.180;2024-01-27T09:11:39;7.40;77.60
70456;DHT22;57916;51.996;5.180;2024-01-27T09:14:06;7.50;78.20
70456;DHT22;57916;51.996;5.180;2024-01-27T09:16:34;7.70;78.10
70456;DHT22;57916;51.996;5.180;2024-01-27T09:19:01;8.00;77.70
70456;DHT22;57916;51.996;5.180;2024-01-27T09:21:29;8.20;77.00
70456;DHT22;57916;51.996;5.180;2024-01-27T09:23:58;8.50;76.40
70456;DHT22;57916;51.996;5.180;2024-01-27T09:26:27;8.70;75.40
70456;DHT22;57916;51.996;5.180;2024-01-27T09:28:54;8.90;74.70
70456;DHT22;57916;51.996;5.180;2024-01-27T09:31:22;9.10;74.20
70456;DHT22;57916;51.996;5.180;2024-01-27T09:33:53;9.30;73.50
70456;DHT22;57916;51.996;5.180;2024-01-27T09:36:20;9.50;73.40
70456;DHT22;57916;51.996;5.180;2024-01-27T09:38:47;9.70;72.90
70456;DHT22;57916;51.996;5.180;2024-01-27T09:41:15;9.90;72.40
70456;DHT22;57916;51.996;5.180;2024-01-27T09:43:43;10.10;72.10
70456;DHT22;57916;51.996;5.180;2024-01-27T09:46:15;10.30;71.70
70456;DHT22;57916;51.996;5.180;2024-01-27T09:48:42;10.50;71.00
70456;DHT22;57916;51.996;5.180;2024-01-27T09:51:10;10.60;70.20
70456;DHT22;57916;51.996;5.180;2024-01-27T09:53:38;10.80;69.90
70456;DHT22;57916;51.996;5.180;2024-01-27T09:56:06;10.90;69.20
70456;DHT22;57916;51.996;5.180;2024-01-27T09:58:33;11.10;68.70
70456;DHT22;57916;51.996;5.180;2024-01-27T10:01:01;11.20;68.70
70456;DHT22;57916;51.996;5.180;2024-01-27T10:03:30;11.30;68.50
70456;DHT22;57916;51.996;5.180;2024-01-27T10:05:58;11.40;67.70
70456;DHT22;57916;51.996;5.180;2024-01-27T10:08:27;11.40;67.40
70456;DHT22;57916;51.996;5.180;2024-01-27T10:10:55;11.50;67.00
70456;DHT22;57916;51.996;5.180;2024-01-27T10:13:25;11.60;66.90
70456;DHT22;57916;51.996;5.180;2024-01-27T10:16:09;11.70;66.60
70456;DHT22;57916;51.996;5.180;2024-01-27T10:18:38;11.80;66.30
70456;DHT22;57916;51.996;5.180;2024-01-27T10:21:16;11.90;66.50
70456;DHT22;57916;51.996;5.180;2024-01-27T10:23:43;12.00;66.70
70456;DHT22;57916;51.996;5.180;2024-01-27T10:26:10;12.10;66.30
70456;DHT22;57916;51.996;5.180;2024-01-27T10:28:38;12.20;65.70
70456;DHT22;57916;51.996;5.180;2024-01-27T10:31:14;12.20;65.30
70456;DHT22;57916;51.996;5.180;2024-01-27T10:33:51;12.30;65.40
70456;DHT22;57916;51.996;5.180;2024-01-27T10:36:20;12.30;65.50
70456;DHT22;57916;51.996;5.180;2024-01-27T10:38:47;12.20;65.80
70456;DHT22;57916;51.996;5.180;2024-01-27T10:41:23;12.20;65.80
70456;DHT22;57916;51.996;5.180;2024-01-27T10:43:56;12.10;65.80
70456;DHT22;57916;51.996;5.180;2024-01-27T10:46:25;12.00;65.80
70456;DHT22;57916;51.996;5.180;2024-01-27T10:48:53;12.00;66.20
70456;DHT22;57916;51.996;5.180;2024-01-27T10:51:31;11.90;66.50
70456;DHT22;57916;51.996;5.180;2024-01-27T10:54:02;11.80;66.90
70456;DHT22;57916;51.996;5.180;2024-01-27T10:56:32;11.80;67.00
70456;DHT22;57916;51.996;5.180;2024-01-27T10:59:00;11.80;67.00
70456;DHT22;57916;51.996;5.180;2024-01-27T11:01:28;11.70;67.00
70456;DHT22;57916;51.996;5.180;2024-01-27T11:03:59;11.70;67.60
70456;DHT22;57916;51.996;5.180;2024-01-27T11:06:27;11.70;67.40
70456;DHT22;57916;51.996;5.180;2024-01-27T11:08:56;11.70;67.40
70456;DHT22;57916;51.996;5.180;2024-01-27T11:11:23;11.60;67.70
70456;DHT22;57916;51.996;5.180;2024-01-27T11:13:51;11.60;67.70
70456;DHT22;57916;51.996;5.180;2024-01-27T11:16:19;11.60;67.60
70456;DHT22;57916;51.996;5.180;2024-01-27T11:18:48;11.60;67.80
70456;DHT22;57916;51.996;5.180;2024-01-27T11:21:16;11.60;68.00
70456;DHT22;57916;51.996;5.180;2024-01-27T11:23:44;11.50;67.90
70456;DHT22;57916;51.996;5.180;2024-01-27T11:26:22;11.50;68.20
70456;DHT22;57916;51.996;5.180;2024-01-27T11:28:50;11.50;68.30
70456;DHT22;57916;51.996;5.180;2024-01-27T11:31:19;11.50;68.40
70456;DHT22;57916;51.996;5.180;2024-01-27T11:33:50;11.50;68.30
70456;DHT22;57916;51.996;5.180;2024-01-27T11:36:23;11.50;68.50
70456;DHT22;57916;51.996;5.180;2024-01-27T11:38:52;11.50;68.40
70456;DHT22;57916;51.996;5.180;2024-01-27T11:41:27;11.50;68.10
70456;DHT22;57916;51.996;5.180;2024-01-27T11:43:55;11.50;67.80
70456;DHT22;57916;51.996;5.180;2024-01-27T11:46:23;11.50;68.10
70456;DHT22;57916;51.996;5.180;2024-01-27T11:48:50;11.50;69.30
70456;DHT22;57916;51.996;5.180;2024-01-27T11:51:17;11.60;68.40
70456;DHT22;57916;51.996;5.180;2024-01-27T11:53:46;11.50;68.00
70456;DHT22;57916;51.996;5.180;2024-01-27T11:56:13;11.50;68.10
70456;DHT22;57916;51.996;5.180;2024-01-27T11:58:50;11.50;68.00
70456;DHT22;57916;51.996;5.180;2024-01-27T12:01:17;11.50;67.80
70456;DHT22;57916;51.996;5.180;2024-01-27T12:03:45;11.50;68.20
70456;DHT22;57916;51.996;5.180;2024-01-27T12:06:12;11.50;68.20
70456;DHT22;57916;51.996;5.180;2024-01-27T12:08:42;11.50;68.10
70456;DHT22;57916;51.996;5.180;2024-01-27T12:11:15;11.60;68.40
70456;DHT22;57916;51.996;5.180;2024-01-27T12:13:49;11.60;68.20
70456;DHT22;57916;51.996;5.180;2024-01-27T12:16:16;11.60;67.50
70456;DHT22;57916;51.996;5.180;2024-01-27T12:18:45;11.60;66.70
70456;DHT22;57916;51.996;5.180;2024-01-27T12:21:12;11.60;66.60
70456;DHT22;57916;51.996;5.180;2024-01-27T12:23:56;11.60;66.80
70456;DHT22;57916;51.996;5.180;2024-01-27T12:26:28;11.60;66.40
70456;DHT22;57916;51.996;5.180;2024-01-27T12:28:56;11.60;66.40
70456;DHT22;57916;51.996;5.180;2024-01-27T12:31:27;11.60;66.70
70456;DHT22;57916;51.996;5.180;2024-01-27T12:33:56;11.60;66.60
70456;DHT22;57916;51.996;5.180;2024-01-27T12:36:26;11.60;66.40
70456;DHT22;57916;51.996;5.180;2024-01-27T12:38:55;11.70;66.50
70456;DHT22;57916;51.996;5.180;2024-01-27T12:41:23;11.70;66.20
70456;DHT22;57916;51.996;5.180;2024-01-27T12:43:50;11.70;66.30
70456;DHT22;57916;51.996;5.180;2024-01-27T12:46:17;11.60;66.30
70456;DHT22;57916;51.996;5.180;2024-01-27T12:48:45;11.60;66.60
70456;DHT22;57916;51.996;5.180;2024-01-27T12:51:13;11.60;66.60
70456;DHT22;57916;51.996;5.180;2024-01-27T12:53:41;11.60;66.80
70456;DHT22;57916;51.996;5.180;2024-01-27T12:56:11;11.70;67.20
70456;DHT22;57916;51.996;5.180;2024-01-27T12:58:38;11.70;66.90
70456;DHT22;57916;51.996;5.180;2024-01-27T13:01:06;11.60;66.90
70456;DHT22;57916;51.996;5.180;2024-01-27T13:03:34;11.60;66.90
70456;DHT22;57916;51.996;5.180;2024-01-27T13:06:01;11.60;66.80
70456;DHT22;57916;51.996;5.180;2024-01-27T13:08:29;11.70;67.20
70456;DHT22;57916;51.996;5.180;2024-01-27T13:10:56;11.70;67.40
70456;DHT22;57916;51.996;5.180;2024-01-27T13:13:23;11.70;67.40
70456;DHT22;57916;51.996;5.180;2024-01-27T13:15:50;11.70;67.20
70456;DHT22;57916;51.996;5.180;2024-01-27T13:18:17;11.70;66.90
70456;DHT22;57916;51.996;5.180;2024-01-27T13:20:44;11.70;67.00
70456;DHT22;57916;51.996;5.180;2024-01-27T13:23:12;11.80;67.10
70456;DHT22;57916;51.996;5.180;2024-01-27T13:25:39;11.80;67.00
70456;DHT22;57916;51.996;5.180;2024-01-27T13:28:10;11.80;66.80
70456;DHT22;57916;51.996;5.180;2024-01-27T13:30:39;11.80;66.40
70456;DHT22;57916;51.996;5.180;2024-01-27T13:33:06;11.80;66.50
70456;DHT22;57916;51.996;5.180;2024-01-27T13:35:33;11.80;66.80
70456;DHT22;57916;51.996;5.180;2024-01-27T13:38:00;11.80;67.00
70456;DHT22;57916;51.996;5.180;2024-01-27T13:40:28;11.70;66.90
70456;DHT22;57916;51.996;5.180;2024-01-27T13:42:55;11.70;66.90
70456;DHT22;57916;51.996;5.180;2024-01-27T13:45:22;11.70;66.90
70456;DHT22;57916;51.996;5.180;2024-01-27T13:47:49;11.70;66.80
70456;DHT22;57916;51.996;5.180;2024-01-27T13:50:16;11.70;66.70
70456;DHT22;57916;51.996;5.180;2024-01-27T13:52:43;11.70;67.00
70456;DHT22;57916;51.996;5.180;2024-01-27T13:55:12;11.70;67.10
70456;DHT22;57916;51.996;5.180;2024-01-27T13:57:39;11.70;67.10
70456;DHT22;57916;51.996;5.180;2024-01-27T14:00:08;11.60;67.10
70456;DHT22;57916;51.996;5.180;2024-01-27T14:02:36;11.60;67.00
70456;DHT22;57916;51.996;5.180;2024-01-27T14:05:05;11.70;66.90
70456;DHT22;57916;51.996;5.180;2024-01-27T14:07:32;11.70;66.80
70456;DHT22;57916;51.996;5.180;2024-01-27T14:10:00;11.70;66.60
70456;DHT22;57916;51.996;5.180;2024-01-27T14:12:28;11.70;66.90
70456;DHT22;57916;51.996;5.180;2024-01-27T14:15:05;11.70;67.00
70456;DHT22;57916;51.996;5.180;2024-01-27T14:17:36;11.70;66.90
70456;DHT22;57916;51.996;5.180;2024-01-27T14:20:04;11.70;66.90
70456;DHT22;57916;51.996;5.180;2024-01-27T14:22:32;11.70;66.80
70456;DHT22;57916;51.996;5.180;2024-01-27T14:24:59;11.80;66.80
70456;DHT22;57916;51.996;5.180;2024-01-27T14:27:26;11.80;66.80
70456;DHT22;57916;51.996;5.180;2024-01-27T14:29:56;11.80;66.90
70456;DHT22;57916;51.996;5.180;2024-01-27T14:32:23;11.80;67.00
70456;DHT22;57916;51.996;5.180;2024-01-27T14:34:50;11.80;67.00
70456;DHT22;57916;51.996;5.180;2024-01-27T14:37:17;11.80;67.10
70456;DHT22;57916;51.996;5.180;2024-01-27T14:39:45;11.80;67.10
70456;DHT22;57916;51.996;5.180;2024-01-27T14:42:13;11.70;67.20
70456;DHT22;57916;51.996;5.180;2024-01-27T14:44:41;11.70;67.20
70456;DHT22;57916;51.996;5.180;2024-01-27T14:47:09;11.70;67.40
70456;DHT22;57916;51.996;5.180;2024-01-27T14:49:36;11.70;67.30
70456;DHT22;57916;51.996;5.180;2024-01-27T14:52:06;11.70;67.40
70456;DHT22;57916;51.996;5.180;2024-01-27T14:54:34;11.70;67.50
70456;DHT22;57916;51.996;5.180;2024-01-27T14:57:05;11.80;67.60
70456;DHT22;57916;51.996;5.180;2024-01-27T14:59:36;11.80;67.60
70456;DHT22;57916;51.996;5.180;2024-01-27T15:02:06;11.80;67.60
70456;DHT22;57916;51.996;5.180;2024-01-27T15:04:34;11.80;67.50
70456;DHT22;57916;51.996;5.180;2024-01-27T15:07:02;11.90;67.30
70456;DHT22;57916;51.996;5.180;2024-01-27T15:09:29;11.80;67.10
70456;DHT22;57916;51.996;5.180;2024-01-27T15:11:56;11.80;66.90
70456;DHT22;57916;51.996;5.180;2024-01-27T15:14:23;11.70;66.70
70456;DHT22;57916;51.996;5.180;2024-01-27T15:16:50;11.70;66.60
70456;DHT22;57916;51.996;5.180;2024-01-27T15:19:17;11.70;66.50
70456;DHT22;57916;51.996;5.180;2024-01-27T15:21:45;11.70;66.50
70456;DHT22;57916;51.996;5.180;2024-01-27T15:24:12;11.70;66.50
70456;DHT22;57916;51.996;5.180;2024-01-27T15:26:39;11.70;66.40
70456;DHT22;57916;51.996;5.180;2024-01-27T15:29:07;11.60;66.40
70456;DHT22;57916;51.996;5.180;2024-01-27T15:31:34;11.70;66.40
70456;DHT22;57916;51.996;5.180;2024-01-27T15:34:00;11.60;66.40
70456;DHT22;57916;51.996;5.180;2024-01-27T15:36:30;11.70;66.50
70456;DHT22;57916;51.996;5.180;2024-01-27T15:38:57;11.70;66.30
70456;DHT22;57916;51.996;5.180;2024-01-27T15:41:24;11.60;66.10
70456;DHT22;57916;51.996;5.180;2024-01-27T15:43:50;11.60;66.00